createdAt,value
2023-03-19T00:01:07.788Z,101140.19
2023-03-19T00:02:17.436Z,101134.81
2023-03-19T00:03:19.578Z,101136.50
2023-03-19T00:04:22.250Z,101127.63
2023-03-19T00:05:24.051Z,101139.59
2023-03-19T00:06:26.410Z,101139.75
2023-03-19T00:07:28.203Z,101135.38
2023-03-19T00:08:30.061Z,101147.09
2023-03-19T00:09:31.874Z,101139.47
2023-03-19T00:10:37.700Z,101139.34
2023-03-19T00:11:39.522Z,101148.34
2023-03-19T00:12:41.630Z,101153.25
2023-03-19T00:13:43.409Z,101158.34
2023-03-19T00:14:45.717Z,101161.16
2023-03-19T00:15:47.573Z,101157.66
2023-03-19T00:16:49.905Z,101142.78
2023-03-19T00:17:52.133Z,101153.25
2023-03-19T00:18:55.049Z,101160.56
2023-03-19T00:19:56.915Z,101157.03
2023-03-19T00:20:58.942Z,101165.19
2023-03-19T00:22:00.728Z,101158.16
2023-03-19T00:23:02.768Z,101164.47
2023-03-19T00:24:05.040Z,101165.47
2023-03-19T00:25:08.677Z,101161.09
2023-03-19T00:26:10.677Z,101154.91
2023-03-19T00:27:12.975Z,101159.41
2023-03-19T00:28:16.187Z,101159.13
2023-03-19T00:29:18.025Z,101160.56
2023-03-19T00:30:20.374Z,101167.88
2023-03-19T00:31:22.985Z,101174.06
2023-03-19T00:32:25.516Z,101172.38
2023-03-19T00:33:27.525Z,101170.66
2023-03-19T00:34:29.569Z,101161.81
2023-03-19T00:35:31.426Z,101156.16
2023-03-19T00:36:33.308Z,101156.75
2023-03-19T00:37:35.805Z,101159.81
2023-03-19T00:38:38.114Z,101161.50
2023-03-19T00:39:40.146Z,101164.19
2023-03-19T00:40:42.659Z,101158.84
2023-03-19T00:41:50.524Z,101166.00
2023-03-19T00:42:52.483Z,101170.38
2023-03-19T00:43:56.269Z,101161.63
2023-03-19T00:44:58.077Z,101157.97
2023-03-19T00:46:00.564Z,101169.81
2023-03-19T00:47:02.457Z,101161.06
2023-03-19T00:48:04.518Z,101161.19
2023-03-19T00:49:06.734Z,101163.88
2023-03-19T00:50:09.202Z,101156.00
2023-03-19T00:51:11.629Z,101157.00
2023-03-19T00:52:13.551Z,101164.03
2023-03-19T00:53:15.558Z,101164.16
2023-03-19T00:54:17.961Z,101163.31
2023-03-19T00:55:19.741Z,101171.47
2023-03-19T00:56:21.809Z,101166.13
2023-03-19T00:57:23.777Z,101163.88
2023-03-19T00:58:26.189Z,101172.63
2023-03-19T00:59:28.149Z,101151.59
2023-03-19T01:00:29.986Z,101155.66
2023-03-19T01:01:32.135Z,101162.47
2023-03-19T01:02:33.963Z,101157.94
2023-03-19T01:03:36.670Z,101167.53
2023-03-19T01:04:40.444Z,101167.53
2023-03-19T01:05:42.369Z,101171.31
2023-03-19T01:06:44.914Z,101169.50
2023-03-19T01:07:46.707Z,101177.53
2023-03-19T01:08:49.605Z,101178.34
2023-03-19T01:09:52.877Z,101168.22
2023-03-19T01:10:54.770Z,101162.97
2023-03-19T01:11:56.899Z,101171.72
2023-03-19T01:12:58.895Z,101182.13
2023-03-19T01:14:01.491Z,101177.06
2023-03-19T01:15:07.051Z,101162.81
2023-03-19T01:16:09.891Z,101185.78
2023-03-19T01:17:12.060Z,101178.75
2023-03-19T01:18:14.114Z,101184.09
2023-03-19T01:19:16.694Z,101183.28
2023-03-19T01:20:19.146Z,101187.91
2023-03-19T01:21:22.052Z,101189.72
2023-03-19T01:22:24.961Z,101197.75
2023-03-19T01:23:31.688Z,101187.91
2023-03-19T01:24:33.718Z,101195.06
2023-03-19T01:25:36.391Z,101189.88
2023-03-19T01:26:40.202Z,101188.03
2023-03-19T01:27:58.364Z,101197.47
2023-03-19T01:29:00.899Z,101200.31
2023-03-19T01:30:03.840Z,101200.44
2023-03-19T01:31:41.050Z,101207.94
2023-03-19T01:33:12.082Z,101205.97
2023-03-19T01:34:23.202Z,101204.41
2023-03-19T01:35:29.544Z,101203.81
2023-03-19T01:36:31.661Z,101202.38
2023-03-19T01:37:38.917Z,101197.03
2023-03-19T01:38:44.052Z,101196.31
2023-03-19T01:39:49.944Z,101200.97
2023-03-19T01:40:52.332Z,101194.19
2023-03-19T01:41:54.620Z,101205.59
2023-03-19T01:43:20.925Z,101203.19
2023-03-19T01:44:35.029Z,101170.63
2023-03-19T01:46:04.684Z,101180.66
2023-03-19T01:47:34.830Z,101198.28
2023-03-19T01:49:06.936Z,101203.81
2023-03-19T01:50:22.206Z,101212.25
2023-03-19T01:51:32.304Z,101215.06
2023-03-19T01:53:15.788Z,101219.03
2023-03-19T01:54:26.007Z,101221.25
2023-03-19T01:55:41.002Z,101222.38
2023-03-19T01:57:08.659Z,101218.16
2023-03-19T01:58:30.395Z,101224.91
2023-03-19T02:00:02.017Z,101224.06
2023-03-19T02:01:20.652Z,101223.34
2023-03-19T02:02:31.621Z,101224.59
2023-03-19T02:03:39.032Z,101229.13
2023-03-19T02:05:00.264Z,101224.88
2023-03-19T02:06:03.099Z,101224.88
2023-03-19T02:07:07.734Z,101227.94
2023-03-19T02:08:13.012Z,101226.25
2023-03-19T02:09:15.619Z,101229.91
2023-03-19T02:10:18.221Z,101233.53
2023-03-19T02:11:21.058Z,101223.28
2023-03-19T02:12:23.399Z,101235.41
2023-03-19T02:13:25.277Z,101216.63
2023-03-19T02:14:27.181Z,101234.69
2023-03-19T02:15:29.093Z,101239.16
2023-03-19T02:16:31.928Z,101241.00
2023-03-19T02:17:34.546Z,101242.00
2023-03-19T02:18:37.112Z,101236.75
2023-03-19T02:20:00.507Z,101238.91
2023-03-19T02:21:06.856Z,101244.41
2023-03-19T02:22:11.835Z,101223.09
2023-03-19T02:23:37.240Z,101242.44
2023-03-19T02:24:56.716Z,101238.91
2023-03-19T02:26:04.414Z,101234.41
2023-03-19T02:27:09.291Z,101238.34
2023-03-19T02:28:18.489Z,101246.47
2023-03-19T02:29:22.344Z,101248.16
2023-03-19T02:30:28.445Z,101253.78
2023-03-19T02:31:31.756Z,101253.78
2023-03-19T02:32:33.581Z,101237.69
2023-03-19T02:33:36.501Z,101243.63
2023-03-19T02:34:43.412Z,101244.47
2023-03-19T02:35:51.283Z,101245.47
2023-03-19T02:37:09.185Z,101241.53
2023-03-19T02:38:11.766Z,101243.34
2023-03-19T02:39:21.548Z,101247.28
2023-03-19T02:40:27.290Z,101245.47
2023-03-19T02:41:32.680Z,101254.47
2023-03-19T02:42:35.478Z,101254.47
2023-03-19T02:43:40.053Z,101252.16
2023-03-19T02:44:42.325Z,101254.84
2023-03-19T02:45:44.250Z,101253.00
2023-03-19T02:46:46.495Z,101262.00
2023-03-19T02:47:48.351Z,101260.44
2023-03-19T02:48:50.117Z,101262.16
2023-03-19T02:49:51.941Z,101221.31
2023-03-19T02:50:54.036Z,101261.44
2023-03-19T02:51:55.996Z,101254.50
2023-03-19T02:52:57.978Z,101261.53
2023-03-19T02:54:01.017Z,101265.09
2023-03-19T02:55:02.924Z,101264.94
2023-03-19T02:56:05.087Z,101249.38
2023-03-19T02:57:08.151Z,101259.84
2023-03-19T02:58:10.005Z,101266.06
2023-03-19T02:59:12.069Z,101259.09
2023-03-19T03:00:14.616Z,101260.09
2023-03-19T03:01:16.512Z,101260.94
2023-03-19T03:02:18.550Z,101260.09
2023-03-19T03:03:22.578Z,101269.78
2023-03-19T03:04:24.378Z,101258.28
2023-03-19T03:05:26.398Z,101263.72
2023-03-19T03:06:28.243Z,101263.72
2023-03-19T03:07:30.045Z,101264.59
2023-03-19T03:08:33.411Z,101263.72
2023-03-19T03:09:35.713Z,101266.56
2023-03-19T03:10:37.680Z,101266.56
2023-03-19T03:11:41.690Z,101272.16
2023-03-19T03:12:44.166Z,101264.25
2023-03-19T03:13:46.105Z,101271.03
2023-03-19T03:14:48.163Z,101277.34
2023-03-19T03:15:49.954Z,101270.31
2023-03-19T03:16:52.453Z,101266.81
2023-03-19T03:17:56.417Z,101268.63
2023-03-19T03:18:58.200Z,101265.94
2023-03-19T03:20:00.002Z,101253.13
2023-03-19T03:21:01.900Z,101257.75
2023-03-19T03:22:03.861Z,101258.72
2023-03-19T03:23:05.844Z,101275.06
2023-03-19T03:24:07.974Z,101282.25
2023-03-19T03:25:11.213Z,101248.38
2023-03-19T03:26:12.984Z,101279.56
2023-03-19T03:27:14.767Z,101278.84
2023-03-19T03:28:16.684Z,101239.03
2023-03-19T03:29:19.117Z,101277.16
2023-03-19T03:30:21.151Z,101273.19
2023-03-19T03:31:23.392Z,101278.97
2023-03-19T03:32:25.594Z,101276.31
2023-03-19T03:33:27.376Z,101285.19
2023-03-19T03:34:29.489Z,101287.84
2023-03-19T03:35:31.761Z,101287.13
2023-03-19T03:36:33.868Z,101282.78
2023-03-19T03:37:37.383Z,101293.47
2023-03-19T03:38:40.188Z,101281.34
2023-03-19T03:39:42.624Z,101284.47
2023-03-19T03:40:44.529Z,101265.09
2023-03-19T03:41:46.509Z,101288.13
2023-03-19T03:42:48.510Z,101279.38
2023-03-19T03:43:50.568Z,101282.06
2023-03-19T03:44:52.436Z,101283.03
2023-03-19T03:45:54.608Z,101287.50
2023-03-19T03:46:57.007Z,101292.84
2023-03-19T03:47:58.810Z,101289.34
2023-03-19T03:49:00.730Z,101290.31
2023-03-19T03:50:05.172Z,101268.50
2023-03-19T03:51:07.586Z,101287.66
2023-03-19T03:52:09.622Z,101284.13
2023-03-19T03:53:13.221Z,101278.47
2023-03-19T03:54:15.510Z,101292.13
2023-03-19T03:55:17.492Z,101277.59
2023-03-19T03:56:19.361Z,101274.09
2023-03-19T03:57:21.308Z,101291.31
2023-03-19T03:58:24.179Z,101297.63
2023-03-19T03:59:26.321Z,101295.69
2023-03-19T04:00:28.309Z,101289.47
2023-03-19T04:01:30.222Z,101295.94
2023-03-19T04:02:32.253Z,101293.00
2023-03-19T04:03:34.281Z,101298.19
2023-03-19T04:04:36.228Z,101299.91
2023-03-19T04:05:38.560Z,101299.06
2023-03-19T04:06:41.368Z,101303.44
2023-03-19T04:07:59.685Z,101297.09
2023-03-19T04:09:02.435Z,101295.16
2023-03-19T04:10:05.703Z,101283.56
2023-03-19T04:11:08.959Z,101303.88
2023-03-19T04:12:12.727Z,101303.75
2023-03-19T04:13:14.715Z,101294.91
2023-03-19T04:14:16.771Z,101302.91
2023-03-19T04:15:19.175Z,101297.41
2023-03-19T04:16:22.690Z,101285.44
2023-03-19T04:17:24.654Z,101292.94
2023-03-19T04:18:27.090Z,101306.19
2023-03-19T04:19:28.957Z,101305.31
2023-03-19T04:20:31.254Z,101308.97
2023-03-19T04:21:33.656Z,101305.31
2023-03-19T04:22:35.651Z,101301.66
2023-03-19T04:23:38.544Z,101309.69
2023-03-19T04:24:41.336Z,101312.38
2023-03-19T04:25:43.149Z,101296.31
2023-03-19T04:26:47.162Z,101300.69
2023-03-19T04:27:49.855Z,101303.38
2023-03-19T04:28:51.715Z,101299.00
2023-03-19T04:29:53.653Z,101314.06
2023-03-19T04:31:04.639Z,101302.91
2023-03-19T04:32:08.573Z,101303.38
2023-03-19T04:33:12.079Z,101295.72
2023-03-19T04:34:14.265Z,101306.75
2023-03-19T04:35:16.300Z,101297.31
2023-03-19T04:36:18.077Z,101312.25
2023-03-19T04:37:20.129Z,101299.13
2023-03-19T04:38:28.922Z,101305.06
2023-03-19T04:39:31.950Z,101301.66
2023-03-19T04:40:34.394Z,101315.75
2023-03-19T04:41:36.554Z,101308.72
2023-03-19T04:42:58.586Z,101309.16
2023-03-19T04:44:06.350Z,101318.06
2023-03-19T04:45:09.195Z,101318.31
2023-03-19T04:46:11.574Z,101307.13
2023-03-19T04:47:13.948Z,101315.75
2023-03-19T04:48:36.597Z,101323.41
2023-03-19T04:49:38.965Z,101313.81
2023-03-19T04:50:41.044Z,101318.44
2023-03-19T04:51:42.871Z,101321.25
2023-03-19T04:52:45.014Z,101312.03
2023-03-19T04:53:48.020Z,101318.69
2023-03-19T04:54:50.093Z,101327.56
2023-03-19T04:55:52.812Z,101326.69
2023-03-19T04:56:55.924Z,101324.16
2023-03-19T04:58:01.399Z,101311.19
2023-03-19T04:59:05.288Z,101327.56
2023-03-19T05:00:08.046Z,101325.00
2023-03-19T05:01:13.333Z,101318.94
2023-03-19T05:02:35.790Z,101324.50
2023-03-19T05:03:38.121Z,101322.06
2023-03-19T05:04:40.039Z,101329.38
2023-03-19T05:05:45.665Z,101326.69
2023-03-19T05:06:47.850Z,101332.06
2023-03-19T05:07:49.924Z,101329.50
2023-03-19T05:08:51.753Z,101328.66
2023-03-19T05:09:54.925Z,101327.78
2023-03-19T05:10:57.330Z,101329.63
2023-03-19T05:12:01.990Z,101334.84
2023-03-19T05:13:08.619Z,101322.44
2023-03-19T05:14:15.474Z,101327.69
2023-03-19T05:15:35.636Z,101333.75
2023-03-19T05:16:41.480Z,101332.06
2023-03-19T05:17:43.585Z,101334.84
2023-03-19T05:19:08.620Z,101333.47
2023-03-19T05:20:12.802Z,101306.88
2023-03-19T05:21:20.499Z,101328.78
2023-03-19T05:22:24.069Z,101332.31
2023-03-19T05:23:27.236Z,101340.31
2023-03-19T05:24:38.511Z,101331.84
2023-03-19T05:25:40.861Z,101333.28
2023-03-19T05:26:46.476Z,101342.13
2023-03-19T05:28:11.209Z,101332.06
2023-03-19T05:29:14.594Z,101338.47
2023-03-19T05:30:31.682Z,101342.75
2023-03-19T05:31:39.468Z,101332.91
2023-03-19T05:32:41.708Z,101337.66
2023-03-19T05:33:50.273Z,101334.97
2023-03-19T05:34:52.079Z,101335.97
2023-03-19T05:35:55.463Z,101333.53
2023-03-19T05:37:19.984Z,101342.75
2023-03-19T05:38:29.947Z,101341.03
2023-03-19T05:39:40.369Z,101341.03
2023-03-19T05:40:44.209Z,101343.00
2023-03-19T05:42:00.913Z,101345.53
2023-03-19T05:43:04.977Z,101350.16
2023-03-19T05:44:06.903Z,101339.25
2023-03-19T05:45:40.794Z,101332.56
2023-03-19T05:46:52.314Z,101339.34
2023-03-19T05:47:56.855Z,101335.97
2023-03-19T05:49:00.130Z,101343.97
2023-03-19T05:50:02.170Z,101330.78
2023-03-19T05:51:05.601Z,101329.09
2023-03-19T05:52:11.836Z,101355.03
2023-03-19T05:53:14.063Z,101348.00
2023-03-19T05:54:23.152Z,101347.16
2023-03-19T05:55:45.176Z,101335.09
2023-03-19T05:56:47.041Z,101345.22
2023-03-19T05:58:07.809Z,101346.66
2023-03-19T05:59:09.969Z,101332.34
2023-03-19T06:00:16.850Z,101337.31
2023-03-19T06:01:21.979Z,101337.31
2023-03-19T06:02:24.882Z,101343.78
2023-03-19T06:03:36.435Z,101347.00
2023-03-19T06:04:42.467Z,101352.50
2023-03-19T06:05:44.518Z,101347.16
2023-03-19T06:07:04.361Z,101345.06
2023-03-19T06:08:06.978Z,101343.50
2023-03-19T06:09:26.383Z,101343.25
2023-03-19T06:10:31.464Z,101344.34
2023-03-19T06:11:39.580Z,101344.34
2023-03-19T06:13:13.613Z,101355.38
2023-03-19T06:14:25.553Z,101350.16
2023-03-19T06:15:49.741Z,101341.56
2023-03-19T06:16:58.764Z,101327.59
2023-03-19T06:18:00.782Z,101344.34
2023-03-19T06:19:02.683Z,101334.78
2023-03-19T06:20:04.800Z,101342.91
2023-03-19T06:21:06.611Z,101341.22
2023-03-19T06:22:09.018Z,101336.25
2023-03-19T06:23:11.166Z,101339.78
2023-03-19T06:24:12.971Z,101343.06
2023-03-19T06:25:14.983Z,101349.38
2023-03-19T06:26:17.360Z,101340.63
2023-03-19T06:27:30.312Z,101335.03
2023-03-19T06:28:42.730Z,101344.50
2023-03-19T06:29:44.839Z,101338.41
2023-03-19T06:30:58.181Z,101344.50
2023-03-19T06:32:35.278Z,101343.00
2023-03-19T06:33:42.675Z,101348.59
2023-03-19T06:34:44.881Z,101345.31
2023-03-19T06:35:47.099Z,101350.81
2023-03-19T06:36:49.025Z,101318.91
2023-03-19T06:37:53.598Z,101346.56
2023-03-19T06:38:55.663Z,101345.72
2023-03-19T06:39:57.605Z,101345.72
2023-03-19T06:40:59.487Z,101351.19
2023-03-19T06:42:01.288Z,101353.84
2023-03-19T06:43:03.454Z,101357.38
2023-03-19T06:44:05.334Z,101353.84
2023-03-19T06:45:07.783Z,101333.97
2023-03-19T06:46:11.664Z,101345.97
2023-03-19T06:47:14.473Z,101330.44
2023-03-19T06:48:17.146Z,101348.41
2023-03-19T06:49:19.439Z,101351.19
2023-03-19T06:50:21.512Z,101353.00
2023-03-19T06:51:23.714Z,101346.69
2023-03-19T06:52:25.600Z,101350.34
2023-03-19T06:53:28.140Z,101346.69
2023-03-19T06:54:29.991Z,101337.25
2023-03-19T06:55:31.866Z,101345.97
2023-03-19T06:56:33.827Z,101345.84
2023-03-19T06:57:36.445Z,101352.16
2023-03-19T06:58:38.350Z,101353.84
2023-03-19T06:59:40.083Z,101358.34
2023-03-19T07:00:42.216Z,101353.84
2023-03-19T07:01:44.023Z,101356.53
2023-03-19T07:02:45.789Z,101345.97
2023-03-19T07:03:47.831Z,101351.31
2023-03-19T07:04:49.654Z,101350.59
2023-03-19T07:05:51.957Z,101351.31
2023-03-19T07:06:53.837Z,101361.03
2023-03-19T07:07:55.896Z,101358.34
2023-03-19T07:08:57.708Z,101363.69
2023-03-19T07:09:59.899Z,101364.69
2023-03-19T07:11:08.613Z,101360.88
2023-03-19T07:12:10.706Z,101355.53
2023-03-19T07:13:13.060Z,101353.47
2023-03-19T07:14:14.966Z,101357.84
2023-03-19T07:15:17.765Z,101352.75
2023-03-19T07:16:19.671Z,101357.59
2023-03-19T07:17:22.269Z,101356.47
2023-03-19T07:18:24.104Z,101358.06
2023-03-19T07:19:26.186Z,101354.50
2023-03-19T07:20:28.614Z,101360.22
2023-03-19T07:21:30.748Z,101352.91
2023-03-19T07:22:32.572Z,101358.88
2023-03-19T07:23:34.368Z,101364.81
2023-03-19T07:24:36.251Z,101365.53
2023-03-19T07:25:38.050Z,101367.94
2023-03-19T07:26:39.834Z,101365.88
2023-03-19T07:27:41.693Z,101363.81
2023-03-19T07:28:43.785Z,101355.06
2023-03-19T07:29:45.756Z,101366.69
2023-03-19T07:30:47.582Z,101355.72
2023-03-19T07:31:49.512Z,101367.84
2023-03-19T07:32:51.338Z,101364.91
2023-03-19T07:33:53.196Z,101370.72
2023-03-19T07:34:55.019Z,101367.78
2023-03-19T07:35:57.080Z,101364.84
2023-03-19T07:36:58.911Z,101355.25
2023-03-19T07:38:02.728Z,101373.06
2023-03-19T07:39:04.640Z,101360.66
2023-03-19T07:40:07.900Z,101373.38
2023-03-19T07:41:09.709Z,101372.13
2023-03-19T07:42:11.633Z,101375.53
2023-03-19T07:43:15.270Z,101378.81
2023-03-19T07:44:17.237Z,101381.22
2023-03-19T07:45:19.750Z,101382.75
2023-03-19T07:46:21.716Z,101378.25
2023-03-19T07:47:28.987Z,101373.31
2023-03-19T07:48:31.906Z,101383.78
2023-03-19T07:49:33.706Z,101384.50
2023-03-19T07:50:36.036Z,101365.47
2023-03-19T07:51:38.104Z,101380.59
2023-03-19T07:52:39.898Z,101388.50
2023-03-19T07:53:41.682Z,101384.84
2023-03-19T07:54:43.739Z,101387.38
2023-03-19T07:55:45.714Z,101375.22
2023-03-19T07:56:47.743Z,101386.16
2023-03-19T07:57:49.843Z,101384.34
2023-03-19T07:58:52.848Z,101386.03
2023-03-19T07:59:54.698Z,101388.59
2023-03-19T08:00:56.451Z,101386.63
2023-03-19T08:01:58.302Z,101380.28
2023-03-19T08:03:00.313Z,101383.66
2023-03-19T08:04:02.325Z,101377.34
2023-03-19T08:05:04.861Z,101386.06
2023-03-19T08:06:06.755Z,101385.94
2023-03-19T08:07:11.197Z,101372.38
2023-03-19T08:08:13.028Z,101384.81
2023-03-19T08:09:14.946Z,101389.19
2023-03-19T08:10:17.113Z,101389.19
2023-03-19T08:11:18.992Z,101380.19
2023-03-19T08:12:21.318Z,101384.56
2023-03-19T08:13:23.221Z,101382.16
2023-03-19T08:14:25.249Z,101369.84
2023-03-19T08:15:27.413Z,101382.59
2023-03-19T08:16:29.269Z,101357.00
2023-03-19T08:17:31.555Z,101390.34
2023-03-19T08:18:33.969Z,101395.69
2023-03-19T08:19:35.728Z,101385.00
2023-03-19T08:20:37.564Z,101385.84
2023-03-19T08:21:39.418Z,101381.31
2023-03-19T08:22:41.867Z,101377.66
2023-03-19T08:23:43.823Z,101386.69
2023-03-19T08:24:45.628Z,101370.88
2023-03-19T08:25:47.456Z,101386.41
2023-03-19T08:26:49.865Z,101393.47
2023-03-19T08:27:51.669Z,101386.41
2023-03-19T08:28:53.502Z,101388.38
2023-03-19T08:29:55.433Z,101387.66
2023-03-19T08:30:57.467Z,101389.81
2023-03-19T08:32:00.925Z,101393.47
2023-03-19T08:33:03.630Z,101388.09
2023-03-19T08:34:06.216Z,101394.16
2023-03-19T08:35:08.394Z,101393.19
2023-03-19T08:36:14.701Z,101391.50
2023-03-19T08:37:17.047Z,101394.88
2023-03-19T08:38:20.086Z,101389.69
2023-03-19T08:39:21.972Z,101385.16
2023-03-19T08:40:24.269Z,101390.50
2023-03-19T08:41:26.164Z,101390.50
2023-03-19T08:42:29.020Z,101385.16
2023-03-19T08:43:32.291Z,101385.16
2023-03-19T08:44:34.178Z,101393.91
2023-03-19T08:45:36.008Z,101391.38
2023-03-19T08:46:38.051Z,101379.38
2023-03-19T08:47:40.630Z,101388.69
2023-03-19T08:48:42.718Z,101391.22
2023-03-19T08:49:44.518Z,101390.38
2023-03-19T08:50:46.356Z,101384.16
2023-03-19T08:51:48.474Z,101392.22
2023-03-19T08:52:50.892Z,101390.38
2023-03-19T08:53:53.148Z,101391.50
2023-03-19T08:54:54.962Z,101376.56
2023-03-19T08:55:59.705Z,101389.53
2023-03-19T08:57:01.817Z,101384.06
2023-03-19T08:58:03.594Z,101383.91
2023-03-19T08:59:05.398Z,101383.19
2023-03-19T09:00:08.104Z,101370.63
2023-03-19T09:01:12.713Z,101388.41
2023-03-19T09:02:14.763Z,101387.44
2023-03-19T09:03:18.031Z,101393.78
2023-03-19T09:04:22.065Z,101393.78
2023-03-19T09:05:24.351Z,101386.56
2023-03-19T09:06:26.529Z,101387.44
2023-03-19T09:07:28.464Z,101389.25
2023-03-19T09:08:31.325Z,101378.81
2023-03-19T09:09:33.656Z,101383.91
2023-03-19T09:10:35.851Z,101379.94
2023-03-19T09:11:38.013Z,101377.38
2023-03-19T09:12:39.997Z,101382.06
2023-03-19T09:13:41.923Z,101389.25
2023-03-19T09:14:44.187Z,101385.59
2023-03-19T09:15:46.173Z,101387.28
2023-03-19T09:16:47.989Z,101381.22
2023-03-19T09:17:50.019Z,101392.63
2023-03-19T09:18:51.935Z,101384.59
2023-03-19T09:19:53.705Z,101384.59
2023-03-19T09:20:55.872Z,101388.16
2023-03-19T09:21:57.697Z,101391.66
2023-03-19T09:22:59.471Z,101387.28
2023-03-19T09:24:01.423Z,101381.09
2023-03-19T09:25:03.663Z,101381.81
2023-03-19T09:26:05.484Z,101385.31
2023-03-19T09:27:07.503Z,101370.78
2023-03-19T09:28:09.734Z,101382.63
2023-03-19T09:29:11.645Z,101381.81
2023-03-19T09:30:14.066Z,101391.53
2023-03-19T09:31:15.891Z,101364.72
2023-03-19T09:32:17.823Z,101388.69
2023-03-19T09:33:21.440Z,101391.53
2023-03-19T09:34:23.280Z,101385.19
2023-03-19T09:35:26.691Z,101389.56
2023-03-19T09:36:28.519Z,101364.72
2023-03-19T09:37:30.307Z,101390.41
2023-03-19T09:38:32.213Z,101387.72
2023-03-19T09:39:34.237Z,101392.09
2023-03-19T09:40:43.842Z,101385.03
2023-03-19T09:41:59.957Z,101383.09
2023-03-19T09:43:25.042Z,101387.31
2023-03-19T09:44:35.002Z,101387.91
2023-03-19T09:45:36.956Z,101387.91
2023-03-19T09:47:09.586Z,101382.56
2023-03-19T09:48:43.282Z,101379.59
2023-03-19T09:49:49.252Z,101376.91
2023-03-19T09:50:51.409Z,101372.09
2023-03-19T09:52:09.451Z,101370.13
2023-03-19T09:53:37.971Z,101372.81
2023-03-19T09:54:46.433Z,101375.34
2023-03-19T09:55:51.637Z,101374.09
2023-03-19T09:56:54.449Z,101368.97
2023-03-19T09:57:58.004Z,101367.00
2023-03-19T09:59:00.524Z,101382.38
2023-03-19T10:00:06.836Z,101377.00
2023-03-19T10:01:23.622Z,101367.16
2023-03-19T10:02:41.989Z,101375.63
2023-03-19T10:03:58.999Z,101361.78
2023-03-19T10:05:45.605Z,101371.56
2023-03-19T10:06:47.534Z,101337.66
2023-03-19T10:07:56.199Z,101366.47
2023-03-19T10:09:25.085Z,101366.47
2023-03-19T10:10:48.558Z,101360.13
2023-03-19T10:11:52.723Z,101356.03
2023-03-19T10:13:07.788Z,101364.91
2023-03-19T10:14:34.336Z,101361.13
2023-03-19T10:15:38.028Z,101369.16
2023-03-19T10:16:43.367Z,101362.50
2023-03-19T10:17:45.521Z,101365.19
2023-03-19T10:18:52.249Z,101361.91
2023-03-19T10:20:23.061Z,101364.06
2023-03-19T10:21:34.466Z,101363.91
2023-03-19T10:22:46.260Z,101355.19
2023-03-19T10:23:54.622Z,101350.22
2023-03-19T10:24:57.962Z,101357.03
2023-03-19T10:26:03.829Z,101357.25
2023-03-19T10:27:12.987Z,101357.25
2023-03-19T10:28:22.449Z,101340.63
2023-03-19T10:29:24.943Z,101355.19
2023-03-19T10:30:29.117Z,101346.97
2023-03-19T10:32:05.000Z,101355.06
2023-03-19T10:33:32.389Z,101351.81
2023-03-19T10:34:37.269Z,101352.81
2023-03-19T10:35:45.535Z,101348.72
2023-03-19T10:36:47.380Z,101354.06
2023-03-19T10:37:55.236Z,101348.97
2023-03-19T10:38:57.061Z,101352.66
2023-03-19T10:40:00.929Z,101349.97
2023-03-19T10:41:11.947Z,101350.09
2023-03-19T10:42:49.310Z,101339.81
2023-03-19T10:43:54.873Z,101337.72
2023-03-19T10:45:05.169Z,101336.41
2023-03-19T10:46:12.873Z,101337.13
2023-03-19T10:47:16.681Z,101338.13
2023-03-19T10:48:19.399Z,101338.28
2023-03-19T10:49:21.266Z,101334.59
2023-03-19T10:50:30.370Z,101334.88
2023-03-19T10:51:33.444Z,101332.06
2023-03-19T10:52:38.078Z,101325.28
2023-03-19T10:53:41.465Z,101321.03
2023-03-19T10:54:46.022Z,101330.34
2023-03-19T10:55:57.872Z,101324.88
2023-03-19T10:57:01.469Z,101325.69
2023-03-19T10:58:07.432Z,101321.34
2023-03-19T10:59:21.365Z,101312.19
2023-03-19T11:00:25.341Z,101326.41
2023-03-19T11:01:47.478Z,101315.28
2023-03-19T11:02:53.245Z,101312.72
2023-03-19T11:04:00.591Z,101311.91
2023-03-19T11:05:31.787Z,101315.13
2023-03-19T11:06:38.586Z,101323.06
2023-03-19T11:07:40.968Z,101307.81
2023-03-19T11:08:43.718Z,101310.91
2023-03-19T11:09:48.655Z,101312.19
2023-03-19T11:10:50.526Z,101312.03
2023-03-19T11:11:59.037Z,101308.66
2023-03-19T11:13:06.523Z,101273.66
2023-03-19T11:14:37.426Z,101304.41
2023-03-19T11:15:39.692Z,101294.13
2023-03-19T11:17:07.850Z,101295.97
2023-03-19T11:18:21.067Z,101301.34
2023-03-19T11:19:28.132Z,101303.31
2023-03-19T11:20:36.440Z,101292.72
2023-03-19T11:21:38.294Z,101301.47
2023-03-19T11:22:40.823Z,101292.72
2023-03-19T11:23:42.809Z,101294.56
2023-03-19T11:25:02.174Z,101297.94
2023-03-19T11:26:04.514Z,101279.75
2023-03-19T11:27:08.649Z,101297.78
2023-03-19T11:28:15.792Z,101287.06
2023-03-19T11:29:17.612Z,101279.59
2023-03-19T11:30:20.592Z,101292.31
2023-03-19T11:31:34.061Z,101283.28
2023-03-19T11:32:50.838Z,101292.03
2023-03-19T11:34:23.641Z,101281.44
2023-03-19T11:35:31.272Z,101283.00
2023-03-19T11:37:08.134Z,101283.56
2023-03-19T11:38:23.441Z,101283.56
2023-03-19T11:39:39.177Z,101279.88
2023-03-19T11:41:23.267Z,101279.94
2023-03-19T11:42:52.985Z,101271.75
2023-03-19T11:43:59.649Z,101276.38
2023-03-19T11:45:19.794Z,101269.31
2023-03-19T11:46:36.349Z,101269.19
2023-03-19T11:47:50.717Z,101280.78
2023-03-19T11:48:55.549Z,101272.59
2023-03-19T11:50:27.911Z,101269.78
2023-03-19T11:51:36.268Z,101269.50
2023-03-19T11:53:12.342Z,101266.53
2023-03-19T11:54:35.440Z,101260.88
2023-03-19T11:55:44.326Z,101268.91
2023-03-19T11:56:56.857Z,101268.06
2023-03-19T11:58:30.014Z,101257.03
2023-03-19T11:59:59.669Z,101258.31
2023-03-19T12:01:21.858Z,101246.88
2023-03-19T12:02:57.339Z,101252.53
2023-03-19T12:04:17.335Z,101256.75
2023-03-19T12:05:41.322Z,101252.53
2023-03-19T12:07:20.336Z,101247.69
2023-03-19T12:08:24.914Z,101244.91
2023-03-19T12:09:32.720Z,101249.69
2023-03-19T12:10:45.570Z,101242.63
2023-03-19T12:11:57.468Z,101249.69
2023-03-19T12:13:27.094Z,101243.34
2023-03-19T12:14:42.878Z,101227.13
2023-03-19T12:16:02.669Z,101245.44
2023-03-19T12:17:22.726Z,101238.09
2023-03-19T12:18:45.930Z,101236.09
2023-03-19T12:19:56.898Z,101236.97
2023-03-19T12:21:23.709Z,101243.59
2023-03-19T12:22:31.640Z,101244.84
2023-03-19T12:23:55.352Z,101242.31
2023-03-19T12:25:27.497Z,101243.31
2023-03-19T12:27:06.476Z,101240.63
2023-03-19T12:28:47.136Z,101236.34
2023-03-19T12:29:48.888Z,101241.03
2023-03-19T12:30:59.660Z,101245.97
2023-03-19T12:32:05.347Z,101237.22
2023-03-19T12:33:28.177Z,101233.69
2023-03-19T12:34:38.299Z,101235.25
2023-03-19T12:35:42.095Z,101232.56
2023-03-19T12:37:17.489Z,101238.34
2023-03-19T12:38:40.123Z,101222.53
2023-03-19T12:39:54.573Z,101225.47